sensor_id;sensor_type;location;lat;lon;timestamp;P1;durP1;ratioP1;P2;durP2;ratioP2
17398;SDS011;8817;48.170;8.592;2023-05-06T00:02:18;9.00;;;8.20;;
17398;SDS011;8817;48.170;8.592;2023-05-06T00:04:45;9.57;;;8.18;;
17398;SDS011;8817;48.170;8.592;2023-05-06T00:07:12;8.82;;;8.02;;
17398;SDS011;8817;48.170;8.592;2023-05-06T00:09:39;9.27;;;8.32;;
17398;SDS011;8817;48.170;8.592;2023-05-06T00:12:06;9.52;;;8.63;;
17398;SDS011;8817;48.170;8.592;2023-05-06T00:14:33;8.82;;;8.02;;
17398;SDS011;8817;48.170;8.592;2023-05-06T00:17:01;9.30;;;8.43;;
17398;SDS011;8817;48.170;8.592;2023-05-06T00:19:28;9.43;;;8.52;;
17398;SDS011;8817;48.170;8.592;2023-05-06T00:21:55;11.10;;;8.60;;
17398;SDS011;8817;48.170;8.592;2023-05-06T00:24:22;8.88;;;8.07;;
17398;SDS011;8817;48.170;8.592;2023-05-06T00:26:49;8.52;;;7.82;;
17398;SDS011;8817;48.170;8.592;2023-05-06T00:29:15;9.13;;;8.32;;
17398;SDS011;8817;48.170;8.592;2023-05-06T00:31:42;8.88;;;8.05;;
17398;SDS011;8817;48.170;8.592;2023-05-06T00:34:11;9.02;;;8.13;;
17398;SDS011;8817;48.170;8.592;2023-05-06T00:36:38;9.82;;;8.10;;
17398;SDS011;8817;48.170;8.592;2023-05-06T00:39:06;10.90;;;8.15;;
17398;SDS011;8817;48.170;8.592;2023-05-06T00:41:33;14.10;;;8.60;;
17398;SDS011;8817;48.170;8.592;2023-05-06T00:44:00;9.73;;;8.80;;
17398;SDS011;8817;48.170;8.592;2023-05-06T00:46:27;9.10;;;8.30;;
17398;SDS011;8817;48.170;8.592;2023-05-06T00:48:54;8.50;;;7.80;;
17398;SDS011;8817;48.170;8.592;2023-05-06T00:51:23;10.25;;;8.05;;
17398;SDS011;8817;48.170;8.592;2023-05-06T00:53:51;8.57;;;7.68;;
17398;SDS011;8817;48.170;8.592;2023-05-06T00:56:18;8.90;;;8.20;;
17398;SDS011;8817;48.170;8.592;2023-05-06T00:58:45;8.93;;;8.13;;
17398;SDS011;8817;48.170;8.592;2023-05-06T01:01:12;9.00;;;8.18;;
17398;SDS011;8817;48.170;8.592;2023-05-06T01:03:39;8.50;;;7.50;;
17398;SDS011;8817;48.170;8.592;2023-05-06T01:06:10;8.93;;;8.13;;
17398;SDS011;8817;48.170;8.592;2023-05-06T01:08:50;8.70;;;7.95;;
17398;SDS011;8817;48.170;8.592;2023-05-06T01:11:32;8.70;;;8.00;;
17398;SDS011;8817;48.170;8.592;2023-05-06T01:14:07;8.80;;;8.10;;
17398;SDS011;8817;48.170;8.592;2023-05-06T01:16:40;8.88;;;8.05;;
17398;SDS011;8817;48.170;8.592;2023-05-06T01:19:08;9.32;;;8.52;;
17398;SDS011;8817;48.170;8.592;2023-05-06T01:21:47;8.60;;;7.90;;
17398;SDS011;8817;48.170;8.592;2023-05-06T01:24:18;8.60;;;7.70;;
17398;SDS011;8817;48.170;8.592;2023-05-06T01:26:45;8.52;;;7.82;;
17398;SDS011;8817;48.170;8.592;2023-05-06T01:29:12;8.65;;;7.95;;
17398;SDS011;8817;48.170;8.592;2023-05-06T01:31:41;8.80;;;8.00;;
17398;SDS011;8817;48.170;8.592;2023-05-06T01:34:13;8.20;;;7.60;;
17398;SDS011;8817;48.170;8.592;2023-05-06T01:36:44;9.82;;;7.97;;
17398;SDS011;8817;48.170;8.592;2023-05-06T01:39:22;8.30;;;7.63;;
17398;SDS011;8817;48.170;8.592;2023-05-06T01:41:50;9.10;;;8.15;;
17398;SDS011;8817;48.170;8.592;2023-05-06T01:44:23;9.30;;;7.90;;
17398;SDS011;8817;48.170;8.592;2023-05-06T01:46:54;8.98;;;8.07;;
17398;SDS011;8817;48.170;8.592;2023-05-06T01:49:22;12.02;;;8.13;;
17398;SDS011;8817;48.170;8.592;2023-05-06T01:51:51;22.83;;;8.77;;
17398;SDS011;8817;48.170;8.592;2023-05-06T01:54:21;17.80;;;8.02;;
17398;SDS011;8817;48.170;8.592;2023-05-06T01:56:48;13.75;;;7.20;;
17398;SDS011;8817;48.170;8.592;2023-05-06T01:59:15;13.27;;;7.55;;
17398;SDS011;8817;48.170;8.592;2023-05-06T02:01:42;8.60;;;7.20;;
17398;SDS011;8817;48.170;8.592;2023-05-06T02:04:09;7.68;;;7.00;;
17398;SDS011;8817;48.170;8.592;2023-05-06T02:06:36;7.53;;;6.85;;
17398;SDS011;8817;48.170;8.592;2023-05-06T02:09:03;7.90;;;7.20;;
17398;SDS011;8817;48.170;8.592;2023-05-06T02:11:31;8.00;;;7.18;;
17398;SDS011;8817;48.170;8.592;2023-05-06T02:13:58;7.33;;;6.83;;
17398;SDS011;8817;48.170;8.592;2023-05-06T02:16:26;7.25;;;6.63;;
17398;SDS011;8817;48.170;8.592;2023-05-06T02:18:53;7.88;;;7.28;;
17398;SDS011;8817;48.170;8.592;2023-05-06T02:21:21;7.72;;;6.95;;
17398;SDS011;8817;48.170;8.592;2023-05-06T02:23:48;7.82;;;7.00;;
17398;SDS011;8817;48.170;8.592;2023-05-06T02:26:15;7.93;;;7.15;;
17398;SDS011;8817;48.170;8.592;2023-05-06T02:28:43;9.05;;;6.80;;
17398;SDS011;8817;48.170;8.592;2023-05-06T02:31:11;7.85;;;7.25;;
17398;SDS011;8817;48.170;8.592;2023-05-06T02:33:39;7.27;;;6.77;;
17398;SDS011;8817;48.170;8.592;2023-05-06T02:36:06;7.68;;;7.18;;
17398;SDS011;8817;48.170;8.592;2023-05-06T02:38:33;7.97;;;7.38;;
17398;SDS011;8817;48.170;8.592;2023-05-06T02:41:00;7.70;;;7.10;;
17398;SDS011;8817;48.170;8.592;2023-05-06T02:43:27;7.90;;;7.30;;
17398;SDS011;8817;48.170;8.592;2023-05-06T02:45:56;7.95;;;7.32;;
17398;SDS011;8817;48.170;8.592;2023-05-06T02:48:22;8.93;;;7.32;;
17398;SDS011;8817;48.170;8.592;2023-05-06T02:50:50;9.95;;;7.07;;
17398;SDS011;8817;48.170;8.592;2023-05-06T02:53:17;7.70;;;7.10;;
17398;SDS011;8817;48.170;8.592;2023-05-06T02:55:44;9.20;;;7.65;;
17398;SDS011;8817;48.170;8.592;2023-05-06T02:58:10;8.23;;;7.53;;
17398;SDS011;8817;48.170;8.592;2023-05-06T03:00:37;10.77;;;7.25;;
17398;SDS011;8817;48.170;8.592;2023-05-06T03:03:05;20.55;;;8.13;;
17398;SDS011;8817;48.170;8.592;2023-05-06T03:05:32;8.63;;;7.80;;
17398;SDS011;8817;48.170;8.592;2023-05-06T03:07:59;9.80;;;7.35;;
17398;SDS011;8817;48.170;8.592;2023-05-06T03:10:26;14.15;;;7.88;;
17398;SDS011;8817;48.170;8.592;2023-05-06T03:12:53;7.95;;;7.25;;
17398;SDS011;8817;48.170;8.592;2023-05-06T03:15:20;9.23;;;7.30;;
17398;SDS011;8817;48.170;8.592;2023-05-06T03:17:47;8.35;;;7.38;;
17398;SDS011;8817;48.170;8.592;2023-05-06T03:20:15;8.82;;;7.15;;
17398;SDS011;8817;48.170;8.592;2023-05-06T03:22:42;10.38;;;7.68;;
17398;SDS011;8817;48.170;8.592;2023-05-06T03:25:09;10.15;;;7.40;;
17398;SDS011;8817;48.170;8.592;2023-05-06T03:27:36;11.77;;;7.40;;
17398;SDS011;8817;48.170;8.592;2023-05-06T03:30:03;12.27;;;7.40;;
17398;SDS011;8817;48.170;8.592;2023-05-06T03:32:30;10.20;;;7.63;;
17398;SDS011;8817;48.170;8.592;2023-05-06T03:34:57;10.27;;;7.13;;
17398;SDS011;8817;48.170;8.592;2023-05-06T03:37:26;15.35;;;7.10;;
17398;SDS011;8817;48.170;8.592;2023-05-06T03:39:54;8.10;;;7.40;;
17398;SDS011;8817;48.170;8.592;2023-05-06T03:42:21;10.05;;;7.60;;
17398;SDS011;8817;48.170;8.592;2023-05-06T03:44:48;7.85;;;7.15;;
17398;SDS011;8817;48.170;8.592;2023-05-06T03:47:15;8.95;;;6.68;;
17398;SDS011;8817;48.170;8.592;2023-05-06T03:49:42;7.78;;;7.13;;
17398;SDS011;8817;48.170;8.592;2023-05-06T03:52:08;8.65;;;7.75;;
17398;SDS011;8817;48.170;8.592;2023-05-06T03:54:37;10.13;;;7.70;;
17398;SDS011;8817;48.170;8.592;2023-05-06T03:57:04;8.40;;;7.70;;
17398;SDS011;8817;48.170;8.592;2023-05-06T03:59:30;9.10;;;7.50;;
17398;SDS011;8817;48.170;8.592;2023-05-06T04:01:57;7.90;;;7.20;;
17398;SDS011;8817;48.170;8.592;2023-05-06T04:04:24;8.10;;;7.45;;
17398;SDS011;8817;48.170;8.592;2023-05-06T04:06:52;8.40;;;7.78;;
17398;SDS011;8817;48.170;8.592;2023-05-06T04:09:19;9.97;;;7.67;;
17398;SDS011;8817;48.170;8.592;2023-05-06T04:11:47;8.35;;;7.57;;
17398;SDS011;8817;48.170;8.592;2023-05-06T04:14:14;8.18;;;7.47;;
17398;SDS011;8817;48.170;8.592;2023-05-06T04:16:41;8.53;;;7.60;;
17398;SDS011;8817;48.170;8.592;2023-05-06T04:19:08;8.30;;;7.60;;
17398;SDS011;8817;48.170;8.592;2023-05-06T04:21:35;9.05;;;8.25;;
17398;SDS011;8817;48.170;8.592;2023-05-06T04:24:02;8.30;;;7.60;;
17398;SDS011;8817;48.170;8.592;2023-05-06T04:26:29;8.18;;;7.47;;
17398;SDS011;8817;48.170;8.592;2023-05-06T04:28:58;8.45;;;7.75;;
17398;SDS011;8817;48.170;8.592;2023-05-06T04:31:25;8.50;;;7.80;;
17398;SDS011;8817;48.170;8.592;2023-05-06T04:33:53;9.52;;;7.40;;
17398;SDS011;8817;48.170;8.592;2023-05-06T04:36:20;9.10;;;8.20;;
17398;SDS011;8817;48.170;8.592;2023-05-06T04:38:47;8.43;;;7.72;;
17398;SDS011;8817;48.170;8.592;2023-05-06T04:41:16;8.45;;;7.70;;
17398;SDS011;8817;48.170;8.592;2023-05-06T04:43:44;9.07;;;8.18;;
17398;SDS011;8817;48.170;8.592;2023-05-06T04:46:12;8.30;;;7.50;;
17398;SDS011;8817;48.170;8.592;2023-05-06T04:48:40;8.00;;;7.40;;
17398;SDS011;8817;48.170;8.592;2023-05-06T04:51:06;8.25;;;7.45;;
17398;SDS011;8817;48.170;8.592;2023-05-06T04:53:34;8.57;;;7.80;;
17398;SDS011;8817;48.170;8.592;2023-05-06T04:56:00;8.90;;;7.80;;
17398;SDS011;8817;48.170;8.592;2023-05-06T04:58:27;15.75;;;8.65;;
17398;SDS011;8817;48.170;8.592;2023-05-06T05:00:54;8.60;;;7.80;;
17398;SDS011;8817;48.170;8.592;2023-05-06T05:03:23;10.88;;;8.00;;
17398;SDS011;8817;48.170;8.592;2023-05-06T05:05:50;10.40;;;8.13;;
17398;SDS011;8817;48.170;8.592;2023-05-06T05:08:17;14.80;;;7.87;;
17398;SDS011;8817;48.170;8.592;2023-05-06T05:10:43;11.18;;;7.90;;
17398;SDS011;8817;48.170;8.592;2023-05-06T05:13:10;15.17;;;8.37;;
17398;SDS011;8817;48.170;8.592;2023-05-06T05:15:38;11.65;;;8.55;;
17398;SDS011;8817;48.170;8.592;2023-05-06T05:18:05;15.63;;;8.63;;
17398;SDS011;8817;48.170;8.592;2023-05-06T05:20:34;11.27;;;8.23;;
17398;SDS011;8817;48.170;8.592;2023-05-06T05:23:01;10.73;;;7.25;;
17398;SDS011;8817;48.170;8.592;2023-05-06T05:25:28;13.38;;;7.40;;
17398;SDS011;8817;48.170;8.592;2023-05-06T05:27:55;23.33;;;7.50;;
17398;SDS011;8817;48.170;8.592;2023-05-06T05:30:21;12.70;;;7.50;;
17398;SDS011;8817;48.170;8.592;2023-05-06T05:32:48;9.77;;;7.72;;
17398;SDS011;8817;48.170;8.592;2023-05-06T05:35:15;11.02;;;7.25;;
17398;SDS011;8817;48.170;8.592;2023-05-06T05:37:44;7.40;;;6.78;;
17398;SDS011;8817;48.170;8.592;2023-05-06T05:40:11;10.57;;;6.97;;
17398;SDS011;8817;48.170;8.592;2023-05-06T05:42:38;7.95;;;7.35;;
17398;SDS011;8817;48.170;8.592;2023-05-06T05:45:06;7.50;;;6.90;;
17398;SDS011;8817;48.170;8.592;2023-05-06T05:47:33;10.43;;;7.00;;
17398;SDS011;8817;48.170;8.592;2023-05-06T05:50:00;7.80;;;7.00;;
17398;SDS011;8817;48.170;8.592;2023-05-06T05:52:27;7.90;;;6.97;;
17398;SDS011;8817;48.170;8.592;2023-05-06T05:54:56;7.70;;;6.82;;
17398;SDS011;8817;48.170;8.592;2023-05-06T05:57:23;9.57;;;6.82;;
17398;SDS011;8817;48.170;8.592;2023-05-06T05:59:50;7.27;;;6.77;;
17398;SDS011;8817;48.170;8.592;2023-05-06T06:02:17;7.60;;;6.80;;
17398;SDS011;8817;48.170;8.592;2023-05-06T06:04:44;7.60;;;7.00;;
17398;SDS011;8817;48.170;8.592;2023-05-06T06:07:11;6.93;;;6.47;;
17398;SDS011;8817;48.170;8.592;2023-05-06T06:09:38;12.90;;;6.53;;
17398;SDS011;8817;48.170;8.592;2023-05-06T06:12:07;7.40;;;6.80;;
17398;SDS011;8817;48.170;8.592;2023-05-06T06:14:34;7.20;;;6.60;;
17398;SDS011;8817;48.170;8.592;2023-05-06T06:17:00;10.90;;;6.65;;
17398;SDS011;8817;48.170;8.592;2023-05-06T06:19:28;11.90;;;7.15;;
17398;SDS011;8817;48.170;8.592;2023-05-06T06:21:55;6.85;;;6.40;;
17398;SDS011;8817;48.170;8.592;2023-05-06T06:24:22;11.60;;;6.75;;
17398;SDS011;8817;48.170;8.592;2023-05-06T06:26:50;7.30;;;6.80;;
17398;SDS011;8817;48.170;8.592;2023-05-06T06:29:18;7.32;;;6.72;;
17398;SDS011;8817;48.170;8.592;2023-05-06T06:31:45;7.30;;;6.80;;
17398;SDS011;8817;48.170;8.592;2023-05-06T06:34:11;7.40;;;6.80;;
17398;SDS011;8817;48.170;8.592;2023-05-06T06:36:39;7.43;;;6.78;;
17398;SDS011;8817;48.170;8.592;2023-05-06T06:39:09;7.38;;;6.80;;
17398;SDS011;8817;48.170;8.592;2023-05-06T06:41:36;7.28;;;6.68;;
17398;SDS011;8817;48.170;8.592;2023-05-06T06:44:03;8.00;;;7.40;;
17398;SDS011;8817;48.170;8.592;2023-05-06T06:46:31;7.40;;;6.90;;
17398;SDS011;8817;48.170;8.592;2023-05-06T06:48:58;7.40;;;6.87;;
17398;SDS011;8817;48.170;8.592;2023-05-06T06:51:25;7.78;;;6.95;;
17398;SDS011;8817;48.170;8.592;2023-05-06T06:53:52;8.50;;;7.70;;
17398;SDS011;8817;48.170;8.592;2023-05-06T06:56:20;8.23;;;7.50;;
17398;SDS011;8817;48.170;8.592;2023-05-06T06:58:47;7.03;;;6.63;;
17398;SDS011;8817;48.170;8.592;2023-05-06T07:01:14;7.63;;;7.03;;
17398;SDS011;8817;48.170;8.592;2023-05-06T07:03:42;7.75;;;7.13;;
17398;SDS011;8817;48.170;8.592;2023-05-06T07:06:09;8.90;;;7.00;;
17398;SDS011;8817;48.170;8.592;2023-05-06T07:08:36;7.57;;;6.97;;
17398;SDS011;8817;48.170;8.592;2023-05-06T07:11:03;7.45;;;6.82;;
17398;SDS011;8817;48.170;8.592;2023-05-06T07:13:30;7.53;;;6.93;;
17398;SDS011;8817;48.170;8.592;2023-05-06T07:15:57;6.90;;;6.50;;
17398;SDS011;8817;48.170;8.592;2023-05-06T07:18:24;7.20;;;6.63;;
17398;SDS011;8817;48.170;8.592;2023-05-06T07:20:52;7.10;;;6.60;;
17398;SDS011;8817;48.170;8.592;2023-05-06T07:23:19;6.65;;;6.25;;
17398;SDS011;8817;48.170;8.592;2023-05-06T07:25:46;6.97;;;6.57;;
17398;SDS011;8817;48.170;8.592;2023-05-06T07:28:13;8.82;;;6.20;;
17398;SDS011;8817;48.170;8.592;2023-05-06T07:30:40;6.80;;;6.30;;
17398;SDS011;8817;48.170;8.592;2023-05-06T07:33:07;7.50;;;6.90;;
17398;SDS011;8817;48.170;8.592;2023-05-06T07:35:35;7.47;;;6.78;;
17398;SDS011;8817;48.170;8.592;2023-05-06T07:38:03;7.10;;;6.50;;
17398;SDS011;8817;48.170;8.592;2023-05-06T07:40:30;7.22;;;6.72;;
17398;SDS011;8817;48.170;8.592;2023-05-06T07:42:57;7.15;;;6.65;;
17398;SDS011;8817;48.170;8.592;2023-05-06T07:45:24;6.97;;;6.47;;
17398;SDS011;8817;48.170;8.592;2023-05-06T07:47:51;6.93;;;6.43;;
17398;SDS011;8817;48.170;8.592;2023-05-06T07:50:18;6.65;;;6.25;;
17398;SDS011;8817;48.170;8.592;2023-05-06T07:52:45;6.82;;;6.43;;
17398;SDS011;8817;48.170;8.592;2023-05-06T07:55:13;6.80;;;6.18;;
17398;SDS011;8817;48.170;8.592;2023-05-06T07:57:40;6.65;;;6.20;;
17398;SDS011;8817;48.170;8.592;2023-05-06T08:00:07;6.90;;;6.40;;
17398;SDS011;8817;48.170;8.592;2023-05-06T08:02:35;6.72;;;6.25;;
17398;SDS011;8817;48.170;8.592;2023-05-06T08:05:03;6.90;;;6.45;;
17398;SDS011;8817;48.170;8.592;2023-05-06T08:07:32;6.90;;;6.40;;
17398;SDS011;8817;48.170;8.592;2023-05-06T08:09:58;6.90;;;6.40;;
17398;SDS011;8817;48.170;8.592;2023-05-06T08:12:27;7.97;;;6.43;;
17398;SDS011;8817;48.170;8.592;2023-05-06T08:14:54;6.45;;;6.05;;
17398;SDS011;8817;48.170;8.592;2023-05-06T08:17:21;6.70;;;6.30;;
17398;SDS011;8817;48.170;8.592;2023-05-06T08:19:48;6.65;;;6.25;;
17398;SDS011;8817;48.170;8.592;2023-05-06T08:22:15;6.60;;;6.20;;
17398;SDS011;8817;48.170;8.592;2023-05-06T08:24:42;7.18;;;6.38;;
17398;SDS011;8817;48.170;8.592;2023-05-06T08:27:08;7.80;;;6.22;;
17398;SDS011;8817;48.170;8.592;2023-05-06T08:29:37;6.80;;;6.30;;
17398;SDS011;8817;48.170;8.592;2023-05-06T08:32:04;6.80;;;6.30;;
17398;SDS011;8817;48.170;8.592;2023-05-06T08:34:31;6.30;;;5.90;;
17398;SDS011;8817;48.170;8.592;2023-05-06T08:36:59;6.68;;;6.22;;
17398;SDS011;8817;48.170;8.592;2023-05-06T08:39:26;7.25;;;6.38;;
17398;SDS011;8817;48.170;8.592;2023-05-06T08:41:53;6.47;;;5.97;;
17398;SDS011;8817;48.170;8.592;2023-05-06T08:44:22;6.55;;;6.10;;
17398;SDS011;8817;48.170;8.592;2023-05-06T08:46:51;6.85;;;6.30;;
17398;SDS011;8817;48.170;8.592;2023-05-06T08:49:18;6.68;;;6.28;;
17398;SDS011;8817;48.170;8.592;2023-05-06T08:51:45;6.90;;;6.30;;
17398;SDS011;8817;48.170;8.592;2023-05-06T08:54:15;6.50;;;6.00;;
17398;SDS011;8817;48.170;8.592;2023-05-06T08:56:44;6.20;;;5.80;;
17398;SDS011;8817;48.170;8.592;2023-05-06T08:59:14;6.50;;;6.00;;
17398;SDS011;8817;48.170;8.592;2023-05-06T09:01:44;6.47;;;5.97;;
17398;SDS011;8817;48.170;8.592;2023-05-06T09:04:12;6.20;;;5.80;;
17398;SDS011;8817;48.170;8.592;2023-05-06T09:06:41;6.45;;;6.03;;
17398;SDS011;8817;48.170;8.592;2023-05-06T09:09:08;6.43;;;6.00;;
17398;SDS011;8817;48.170;8.592;2023-05-06T09:11:37;5.88;;;5.57;;
17398;SDS011;8817;48.170;8.592;2023-05-06T09:14:10;5.95;;;5.65;;
17398;SDS011;8817;48.170;8.592;2023-05-06T09:16:38;6.30;;;5.90;;
17398;SDS011;8817;48.170;8.592;2023-05-06T09:19:07;5.80;;;5.50;;
17398;SDS011;8817;48.170;8.592;2023-05-06T09:21:36;5.93;;;5.57;;
17398;SDS011;8817;48.170;8.592;2023-05-06T09:24:05;6.00;;;5.70;;
17398;SDS011;8817;48.170;8.592;2023-05-06T09:26:33;5.80;;;5.50;;
17398;SDS011;8817;48.170;8.592;2023-05-06T09:29:01;8.00;;;5.65;;
17398;SDS011;8817;48.170;8.592;2023-05-06T09:31:29;6.35;;;5.80;;
17398;SDS011;8817;48.170;8.592;2023-05-06T09:33:57;5.75;;;5.38;;
17398;SDS011;8817;48.170;8.592;2023-05-06T09:36:25;5.50;;;5.20;;
17398;SDS011;8817;48.170;8.592;2023-05-06T09:38:54;5.82;;;5.53;;
17398;SDS011;8817;48.170;8.592;2023-05-06T09:41:22;5.82;;;5.53;;
17398;SDS011;8817;48.170;8.592;2023-05-06T09:43:50;5.50;;;5.20;;
17398;SDS011;8817;48.170;8.592;2023-05-06T09:46:18;5.47;;;5.18;;
17398;SDS011;8817;48.170;8.592;2023-05-06T09:48:47;5.82;;;5.53;;
17398;SDS011;8817;48.170;8.592;2023-05-06T09:51:16;5.60;;;5.20;;
17398;SDS011;8817;48.170;8.592;2023-05-06T09:53:43;5.65;;;5.35;;
17398;SDS011;8817;48.170;8.592;2023-05-06T09:56:12;5.82;;;5.43;;
17398;SDS011;8817;48.170;8.592;2023-05-06T09:58:40;5.43;;;5.13;;
17398;SDS011;8817;48.170;8.592;2023-05-06T10:01:07;5.80;;;5.40;;
17398;SDS011;8817;48.170;8.592;2023-05-06T10:03:34;5.60;;;5.30;;
17398;SDS011;8817;48.170;8.592;2023-05-06T10:06:03;5.50;;;5.10;;
17398;SDS011;8817;48.170;8.592;2023-05-06T10:08:31;5.20;;;5.00;;
17398;SDS011;8817;48.170;8.592;2023-05-06T10:10:59;5.20;;;5.00;;
17398;SDS011;8817;48.170;8.592;2023-05-06T10:13:28;5.20;;;5.00;;
17398;SDS011;8817;48.170;8.592;2023-05-06T10:15:55;5.50;;;5.20;;
17398;SDS011;8817;48.170;8.592;2023-05-06T10:18:24;5.40;;;5.20;;
17398;SDS011;8817;48.170;8.592;2023-05-06T10:20:55;5.10;;;4.85;;
17398;SDS011;8817;48.170;8.592;2023-05-06T10:23:38;5.53;;;5.20;;
17398;SDS011;8817;48.170;8.592;2023-05-06T10:26:09;5.50;;;5.20;;
17398;SDS011;8817;48.170;8.592;2023-05-06T10:28:40;5.28;;;5.07;;
17398;SDS011;8817;48.170;8.592;2023-05-06T10:31:09;5.20;;;4.80;;
17398;SDS011;8817;48.170;8.592;2023-05-06T10:33:38;5.00;;;4.80;;
17398;SDS011;8817;48.170;8.592;2023-05-06T10:36:10;4.88;;;4.68;;
17398;SDS011;8817;48.170;8.592;2023-05-06T10:38:44;4.80;;;4.60;;
17398;SDS011;8817;48.170;8.592;2023-05-06T10:41:14;4.88;;;4.68;;
17398;SDS011;8817;48.170;8.592;2023-05-06T10:43:43;4.88;;;4.68;;
17398;SDS011;8817;48.170;8.592;2023-05-06T10:46:12;5.15;;;4.60;;
17398;SDS011;8817;48.170;8.592;2023-05-06T10:51:41;4.75;;;4.63;;
17398;SDS011;8817;48.170;8.592;2023-05-06T10:54:08;4.70;;;4.60;;
17398;SDS011;8817;48.170;8.592;2023-05-06T10:56:37;5.00;;;4.70;;
17398;SDS011;8817;48.170;8.592;2023-05-06T10:59:06;4.57;;;4.38;;
17398;SDS011;8817;48.170;8.592;2023-05-06T11:01:34;4.43;;;4.32;;
17398;SDS011;8817;48.170;8.592;2023-05-06T11:04:05;4.82;;;4.57;;
17398;SDS011;8817;48.170;8.592;2023-05-06T11:06:34;4.80;;;4.70;;
17398;SDS011;8817;48.170;8.592;2023-05-06T11:09:03;4.57;;;4.47;;
17398;SDS011;8817;48.170;8.592;2023-05-06T11:11:49;4.78;;;4.57;;
17398;SDS011;8817;48.170;8.592;2023-05-06T11:14:25;5.25;;;4.70;;
17398;SDS011;8817;48.170;8.592;2023-05-06T11:16:53;4.93;;;4.63;;
17398;SDS011;8817;48.170;8.592;2023-05-06T11:19:22;4.57;;;4.38;;
17398;SDS011;8817;48.170;8.592;2023-05-06T11:21:51;4.65;;;4.50;;
17398;SDS011;8817;48.170;8.592;2023-05-06T11:24:22;4.70;;;4.50;;
17398;SDS011;8817;48.170;8.592;2023-05-06T11:26:51;5.03;;;4.57;;
17398;SDS011;8817;48.170;8.592;2023-05-06T11:29:18;4.75;;;4.53;;
17398;SDS011;8817;48.170;8.592;2023-05-06T11:31:47;4.72;;;4.53;;
17398;SDS011;8817;48.170;8.592;2023-05-06T11:34:19;4.95;;;4.65;;
17398;SDS011;8817;48.170;8.592;2023-05-06T11:36:49;4.80;;;4.60;;
17398;SDS011;8817;48.170;8.592;2023-05-06T11:39:27;4.70;;;4.50;;
17398;SDS011;8817;48.170;8.592;2023-05-06T11:41:59;4.80;;;4.50;;
17398;SDS011;8817;48.170;8.592;2023-05-06T11:44:27;4.63;;;4.43;;
17398;SDS011;8817;48.170;8.592;2023-05-06T11:46:57;4.63;;;4.53;;
17398;SDS011;8817;48.170;8.592;2023-05-06T11:49:27;4.60;;;4.40;;
17398;SDS011;8817;48.170;8.592;2023-05-06T11:51:54;4.82;;;4.60;;
17398;SDS011;8817;48.170;8.592;2023-05-06T11:54:23;4.70;;;4.38;;
17398;SDS011;8817;48.170;8.592;2023-05-06T11:56:51;4.78;;;4.60;;
17398;SDS011;8817;48.170;8.592;2023-05-06T11:59:29;4.63;;;4.43;;
17398;SDS011;8817;48.170;8.592;2023-05-06T12:01:59;4.60;;;4.40;;
17398;SDS011;8817;48.170;8.592;2023-05-06T12:04:28;4.80;;;4.60;;
17398;SDS011;8817;48.170;8.592;2023-05-06T12:07:02;4.90;;;4.63;;
17398;SDS011;8817;48.170;8.592;2023-05-06T12:09:30;4.90;;;4.50;;
17398;SDS011;8817;48.170;8.592;2023-05-06T12:11:58;4.60;;;4.30;;
17398;SDS011;8817;48.170;8.592;2023-05-06T12:14:26;4.88;;;4.40;;
17398;SDS011;8817;48.170;8.592;2023-05-06T12:16:54;4.47;;;4.30;;
17398;SDS011;8817;48.170;8.592;2023-05-06T12:19:22;4.57;;;4.40;;
17398;SDS011;8817;48.170;8.592;2023-05-06T12:21:50;4.63;;;4.45;;
17398;SDS011;8817;48.170;8.592;2023-05-06T12:24:25;4.50;;;4.40;;
17398;SDS011;8817;48.170;8.592;2023-05-06T12:26:53;4.75;;;4.50;;
17398;SDS011;8817;48.170;8.592;2023-05-06T12:29:20;4.80;;;4.60;;
17398;SDS011;8817;48.170;8.592;2023-05-06T12:31:47;5.30;;;4.85;;
17398;SDS011;8817;48.170;8.592;2023-05-06T12:34:14;4.50;;;4.30;;
17398;SDS011;8817;48.170;8.592;2023-05-06T12:36:44;4.32;;;4.22;;
17398;SDS011;8817;48.170;8.592;2023-05-06T12:39:12;4.90;;;4.70;;
17398;SDS011;8817;48.170;8.592;2023-05-06T12:41:40;5.20;;;4.90;;
17398;SDS011;8817;48.170;8.592;2023-05-06T12:46:55;4.30;;;4.20;;
17398;SDS011;8817;48.170;8.592;2023-05-06T12:49:22;4.70;;;4.50;;
17398;SDS011;8817;48.170;8.592;2023-05-06T12:54:42;4.70;;;4.40;;
17398;SDS011;8817;48.170;8.592;2023-05-06T12:57:10;4.30;;;4.20;;
17398;SDS011;8817;48.170;8.592;2023-05-06T12:59:37;4.50;;;4.40;;
17398;SDS011;8817;48.170;8.592;2023-05-06T13:02:04;4.60;;;4.40;;
17398;SDS011;8817;48.170;8.592;2023-05-06T13:04:31;4.80;;;4.60;;
17398;SDS011;8817;48.170;8.592;2023-05-06T13:06:58;4.53;;;4.32;;
17398;SDS011;8817;48.170;8.592;2023-05-06T13:09:25;4.68;;;4.47;;
17398;SDS011;8817;48.170;8.592;2023-05-06T13:11:54;4.38;;;4.20;;
17398;SDS011;8817;48.170;8.592;2023-05-06T13:14:20;4.57;;;4.47;;
17398;SDS011;8817;48.170;8.592;2023-05-06T13:16:48;4.80;;;4.60;;
17398;SDS011;8817;48.170;8.592;2023-05-06T13:19:15;4.60;;;4.40;;
17398;SDS011;8817;48.170;8.592;2023-05-06T13:21:42;4.40;;;4.30;;
17398;SDS011;8817;48.170;8.592;2023-05-06T13:24:10;4.80;;;4.60;;
17398;SDS011;8817;48.170;8.592;2023-05-06T13:26:37;4.57;;;4.28;;
17398;SDS011;8817;48.170;8.592;2023-05-06T13:29:05;4.75;;;4.47;;
17398;SDS011;8817;48.170;8.592;2023-05-06T13:31:32;4.30;;;4.20;;
17398;SDS011;8817;48.170;8.592;2023-05-06T13:33:59;4.30;;;4.20;;
17398;SDS011;8817;48.170;8.592;2023-05-06T13:36:26;4.60;;;4.40;;
17398;SDS011;8817;48.170;8.592;2023-05-06T13:38:53;4.68;;;4.47;;
17398;SDS011;8817;48.170;8.592;2023-05-06T13:41:21;4.55;;;4.20;;
17398;SDS011;8817;48.170;8.592;2023-05-06T13:43:49;4.50;;;4.30;;
17398;SDS011;8817;48.170;8.592;2023-05-06T13:46:17;4.50;;;4.30;;
17398;SDS011;8817;48.170;8.592;2023-05-06T13:48:44;4.35;;;4.25;;
17398;SDS011;8817;48.170;8.592;2023-05-06T13:51:11;5.05;;;4.85;;
17398;SDS011;8817;48.170;8.592;2023-05-06T13:53:38;4.57;;;4.38;;
17398;SDS011;8817;48.170;8.592;2023-05-06T13:56:05;4.50;;;4.40;;
17398;SDS011;8817;48.170;8.592;2023-05-06T13:58:32;4.75;;;4.55;;
17398;SDS011;8817;48.170;8.592;2023-05-06T14:00:59;4.50;;;4.40;;
17398;SDS011;8817;48.170;8.592;2023-05-06T14:03:27;4.90;;;4.70;;
17398;SDS011;8817;48.170;8.592;2023-05-06T14:05:54;4.95;;;4.75;;
17398;SDS011;8817;48.170;8.592;2023-05-06T14:08:21;5.00;;;4.70;;
17398;SDS011;8817;48.170;8.592;2023-05-06T14:10:48;5.00;;;4.80;;
17398;SDS011;8817;48.170;8.592;2023-05-06T14:13:14;4.85;;;4.60;;
17398;SDS011;8817;48.170;8.592;2023-05-06T14:15:42;4.70;;;4.50;;
17398;SDS011;8817;48.170;8.592;2023-05-06T14:18:08;4.72;;;4.55;;
17398;SDS011;8817;48.170;8.592;2023-05-06T14:20:37;7.53;;;4.60;;
17398;SDS011;8817;48.170;8.592;2023-05-06T14:23:04;4.55;;;4.35;;
17398;SDS011;8817;48.170;8.592;2023-05-06T14:25:31;5.25;;;4.70;;
17398;SDS011;8817;48.170;8.592;2023-05-06T14:27:58;4.90;;;4.60;;
17398;SDS011;8817;48.170;8.592;2023-05-06T14:30:25;5.03;;;4.72;;
17398;SDS011;8817;48.170;8.592;2023-05-06T14:32:51;4.70;;;4.50;;
17398;SDS011;8817;48.170;8.592;2023-05-06T14:35:18;4.85;;;4.65;;
17398;SDS011;8817;48.170;8.592;2023-05-06T14:37:47;4.40;;;4.30;;
17398;SDS011;8817;48.170;8.592;2023-05-06T14:40:14;4.65;;;4.47;;
17398;SDS011;8817;48.170;8.592;2023-05-06T14:42:41;4.70;;;4.50;;
17398;SDS011;8817;48.170;8.592;2023-05-06T14:45:09;5.05;;;4.65;;
17398;SDS011;8817;48.170;8.592;2023-05-06T14:47:37;4.70;;;4.55;;
17398;SDS011;8817;48.170;8.592;2023-05-06T14:50:05;4.95;;;4.55;;
17398;SDS011;8817;48.170;8.592;2023-05-06T14:52:34;4.53;;;4.43;;
17398;SDS011;8817;48.170;8.592;2023-05-06T14:55:03;4.82;;;4.53;;
17398;SDS011;8817;48.170;8.592;2023-05-06T14:57:31;4.78;;;4.60;;
17398;SDS011;8817;48.170;8.592;2023-05-06T14:59:58;4.80;;;4.60;;
17398;SDS011;8817;48.170;8.592;2023-05-06T15:02:26;4.63;;;4.43;;
17398;SDS011;8817;48.170;8.592;2023-05-06T15:04:53;4.50;;;4.40;;
17398;SDS011;8817;48.170;8.592;2023-05-06T15:07:20;4.53;;;4.40;;
17398;SDS011;8817;48.170;8.592;2023-05-06T15:09:47;4.50;;;4.40;;
17398;SDS011;8817;48.170;8.592;2023-05-06T15:12:15;4.63;;;4.45;;
17398;SDS011;8817;48.170;8.592;2023-05-06T15:14:42;4.78;;;4.57;;